Terminal Aerodrome Forecast
Issued by NWS Jacksonville, FL

Home | Current Version | Previous Version | Text Only | Print | Product List | Glossary On
Versions: 1 2 3 4 5 6 7 8 9 10 11 12 13 14 15 16 17 18 19 20 21 22 23 24 25 26 27 28 29 30 31 32 33
309
FTUS42 KJAX 191740
TAFGNV
TAF
KGNV 191740Z 1918/2018 12008KT P6SM SCT035
     FM200500 09003KT 3SM BR SCT003
     FM200800 10002KT 1SM BR OVC003
     FM201500 13009KT P6SM SCT015 BKN035=

USA.gov is the U.S. government's official web portal to all federal, state and local government web resources and services.